Time;durP1;ratioP1;P1;durP2;ratioP2;P2;SDS_P1;SDS_P2;PMS_P1;PMS_P2;Temp;Humidity;BMP_temperature;BMP_pressure;BME280_temperature;BME280_humidity;BME280_pressure;Samples;Min_cycle;Max_cycle;Signal;HPM_P1;HPM_P2
2023/04/25 00:02:19;;;;;;;2.67;1.90;;;13.10;90.00;;;;;;5014306;28;20203;-68
2023/04/25 00:04:49;;;;;;;1.50;1.40;;;13.10;90.00;;;;;;5005707;28;20530;-68
2023/04/25 00:07:16;;;;;;;3.90;1.83;;;13.10;90.00;;;;;;5008872;28;20203;-68
2023/04/25 00:09:44;;;;;;;1.53;1.43;;;13.10;90.10;;;;;;5010635;28;20223;-68
2023/04/25 00:12:11;;;;;;;2.10;1.47;;;13.10;90.10;;;;;;5003186;28;20266;-68
2023/04/25 00:14:38;;;;;;;2.63;1.47;;;13.20;90.10;;;;;;5011417;28;20204;-68
2023/04/25 00:17:05;;;;;;;2.40;1.63;;;13.20;90.10;;;;;;5006669;28;20215;-68
2023/04/25 00:19:34;;;;;;;2.00;1.60;;;13.20;90.10;;;;;;5016012;28;20265;-69
2023/04/25 00:22:01;;;;;;;3.20;1.60;;;13.20;90.10;;;;;;5006126;28;20216;-68
2023/04/25 00:24:28;;;;;;;1.63;1.20;;;13.30;90.10;;;;;;5002964;28;20274;-68
2023/04/25 00:26:55;;;;;;;1.70;1.53;;;13.20;90.10;;;;;;5008434;28;20262;-68
2023/04/25 00:29:22;;;;;;;2.70;1.50;;;13.30;90.10;;;;;;5005788;28;20231;-71
2023/04/25 00:31:49;;;;;;;1.90;1.23;;;13.30;90.00;;;;;;5007159;28;20207;-68
2023/04/25 00:34:16;;;;;;;3.20;1.47;;;13.30;90.00;;;;;;5022153;28;20227;-68
2023/04/25 00:36:43;;;;;;;1.87;1.30;;;13.40;90.00;;;;;;5038435;28;20212;-68
2023/04/25 00:39:11;;;;;;;3.17;1.63;;;13.40;89.90;;;;;;5006407;28;20931;-68
2023/04/25 00:41:39;;;;;;;3.77;1.50;;;13.40;89.80;;;;;;5043356;28;20633;-68
2023/04/25 00:44:11;;;;;;;2.03;1.20;;;13.40;89.70;;;;;;5014999;28;20192;-68
2023/04/25 00:46:39;;;;;;;2.97;1.80;;;13.40;89.60;;;;;;5014242;28;20282;-68
2023/04/25 00:49:06;;;;;;;1.97;1.40;;;13.40;89.50;;;;;;5012675;28;20200;-68
2023/04/25 00:51:35;;;;;;;2.47;1.23;;;13.40;89.40;;;;;;5014460;28;20545;-68
2023/04/25 00:54:02;;;;;;;3.00;1.50;;;13.40;89.40;;;;;;5009197;28;20563;-68
2023/04/25 00:56:30;;;;;;;1.53;1.43;;;13.40;89.30;;;;;;5027623;28;20212;-68
2023/04/25 00:58:57;;;;;;;3.07;1.60;;;13.40;89.30;;;;;;5012012;28;20226;-68
2023/04/25 01:01:24;;;;;;;1.33;1.07;;;13.40;89.30;;;;;;5004095;28;20210;-69
2023/04/25 01:03:53;;;;;;;1.10;1.00;;;13.40;89.20;;;;;;5009837;28;20281;-72
2023/04/25 01:06:22;;;;;;;5.07;1.43;;;13.40;89.20;;;;;;5003279;28;20193;-68
2023/04/25 01:08:49;;;;;;;3.17;1.50;;;13.40;89.20;;;;;;5011812;28;20246;-68
2023/04/25 01:11:16;;;;;;;3.20;1.90;;;13.40;89.30;;;;;;5011778;28;20245;-69
2023/04/25 01:13:43;;;;;;;2.53;1.30;;;13.40;89.30;;;;;;5010958;28;20252;-69
2023/04/25 01:16:10;;;;;;;3.07;1.53;;;13.40;89.40;;;;;;5039173;28;20214;-68
2023/04/25 01:18:40;;;;;;;1.57;1.33;;;13.40;89.40;;;;;;5011415;28;20223;-68
2023/04/25 01:21:09;;;;;;;4.47;1.20;;;13.40;89.50;;;;;;5013998;28;20198;-68
2023/04/25 01:23:41;;;;;;;1.83;1.23;;;13.30;89.60;;;;;;5038722;28;20211;-68
2023/04/25 01:26:10;;;;;;;1.90;1.67;;;13.30;89.60;;;;;;5013112;28;20219;-68
2023/04/25 01:28:41;;;;;;;2.23;1.47;;;13.30;89.70;;;;;;5012644;28;20196;-68
2023/04/25 01:31:10;;;;;;;1.60;1.50;;;13.30;89.70;;;;;;5001981;28;20200;-69
2023/04/25 01:33:38;;;;;;;3.03;1.57;;;13.30;89.70;;;;;;5010731;28;20207;-69
2023/04/25 01:36:05;;;;;;;4.90;1.60;;;13.30;89.70;;;;;;5000587;28;20936;-69
2023/04/25 01:38:35;;;;;;;4.40;1.50;;;13.30;89.80;;;;;;5003022;28;20623;-68
2023/04/25 01:41:02;;;;;;;10.13;1.47;;;13.30;89.90;;;;;;5033063;28;20298;-68
2023/04/25 01:43:29;;;;;;;4.87;2.10;;;13.30;90.00;;;;;;5005660;28;20298;-68
2023/04/25 01:45:56;;;;;;;4.90;2.20;;;13.30;90.00;;;;;;5003384;28;20689;-68
2023/04/25 01:48:24;;;;;;;9.00;2.10;;;13.20;90.00;;;;;;5012530;28;20661;-68
2023/04/25 01:50:51;;;;;;;5.50;1.30;;;13.30;90.10;;;;;;5007120;28;20230;-68
2023/04/25 01:53:18;;;;;;;4.70;2.03;;;13.30;90.10;;;;;;5012641;28;20218;-68
2023/04/25 01:55:46;;;;;;;5.60;2.10;;;13.20;90.10;;;;;;5013697;28;20222;-69
2023/04/25 01:58:15;;;;;;;4.17;2.10;;;13.20;90.10;;;;;;5010225;28;20231;-69
2023/04/25 02:01:08;;;;;;;7.30;1.83;;;13.20;90.10;;;;;;5018221;28;20219;-69
2023/04/25 02:03:43;;;;;;;5.50;1.90;;;13.20;90.10;;;;;;5008864;28;20204;-68
2023/04/25 02:06:19;;;;;;;5.07;2.10;;;13.20;90.20;;;;;;5022955;28;20203;-68
2023/04/25 02:08:48;;;;;;;5.43;1.87;;;13.10;90.20;;;;;;5008140;28;20278;-68
2023/04/25 02:11:15;;;;;;;5.47;2.17;;;13.10;90.30;;;;;;5006044;28;20683;-68
2023/04/25 02:14:12;;;;;;;2.73;1.90;;;13.10;90.30;;;;;;5016351;28;20217;-68
2023/04/25 02:16:54;;;;;;;2.30;1.70;;;13.10;90.30;;;;;;5013692;28;20256;-68
2023/04/25 02:19:22;;;;;;;4.07;1.77;;;13.10;90.30;;;;;;5052614;28;20236;-68
2023/04/25 02:21:49;;;;;;;3.70;1.67;;;13.00;90.30;;;;;;5007263;28;20693;-69
2023/04/25 02:24:16;;;;;;;3.80;1.83;;;13.00;90.30;;;;;;4998821;28;20207;-68
2023/04/25 02:26:43;;;;;;;3.43;1.27;;;13.00;90.30;;;;;;5001351;28;20210;-69
2023/04/25 02:29:12;;;;;;;3.63;1.33;;;13.00;90.30;;;;;;5029047;28;20200;-68
2023/04/25 02:31:42;;;;;;;3.67;1.27;;;13.00;90.30;;;;;;5013535;28;20196;-68
2023/04/25 02:34:09;;;;;;;3.27;1.77;;;13.00;90.20;;;;;;5022806;28;20211;-70
2023/04/25 02:36:38;;;;;;;2.13;1.10;;;13.00;90.20;;;;;;5010489;28;20208;-69
2023/04/25 02:39:05;;;;;;;4.30;1.50;;;13.00;90.20;;;;;;5009959;28;20231;-69
2023/04/25 02:41:32;;;;;;;3.37;1.50;;;13.00;90.10;;;;;;5005571;28;20227;-68
2023/04/25 02:43:59;;;;;;;4.73;1.70;;;13.00;90.10;;;;;;4997548;28;20199;-68
2023/04/25 02:46:26;;;;;;;4.67;1.53;;;13.00;90.00;;;;;;5001970;28;20280;-68
2023/04/25 02:49:06;;;;;;;2.17;1.23;;;13.00;90.00;;;;;;5008781;28;20253;-69
2023/04/25 02:51:34;;;;;;;1.40;1.00;;;13.00;90.00;;;;;;5041538;28;20212;-69
2023/04/25 02:54:01;;;;;;;1.37;1.10;;;13.00;90.00;;;;;;5019966;28;20242;-68
2023/04/25 02:56:30;;;;;;;1.67;1.03;;;12.90;89.80;;;;;;5008742;28;20287;-68
2023/04/25 02:58:57;;;;;;;2.07;1.20;;;12.90;89.80;;;;;;5012812;28;20219;-69
2023/04/25 03:01:24;;;;;;;2.90;1.03;;;12.90;89.70;;;;;;5010044;28;20192;-68
2023/04/25 03:03:51;;;;;;;3.60;1.27;;;12.90;89.60;;;;;;5005378;28;20201;-68
2023/04/25 03:06:19;;;;;;;1.57;1.10;;;12.90;89.60;;;;;;5003061;28;20231;-68
2023/04/25 03:08:46;;;;;;;1.57;1.07;;;12.80;89.60;;;;;;5017824;28;20305;-69
2023/04/25 03:11:14;;;;;;;1.60;1.17;;;12.80;89.70;;;;;;5007378;28;20272;-69
2023/04/25 03:13:42;;;;;;;4.20;1.27;;;12.80;89.60;;;;;;5015193;28;20269;-68
2023/04/25 03:16:10;;;;;;;0.73;0.73;;;12.80;89.50;;;;;;5010358;28;20281;-67
2023/04/25 03:18:37;;;;;;;1.37;1.00;;;12.80;89.40;;;;;;5014534;28;20548;-68
2023/04/25 03:21:04;;;;;;;1.20;1.03;;;12.70;89.90;;;;;;5011344;28;20204;-68
2023/04/25 03:23:31;;;;;;;0.93;0.93;;;12.70;89.30;;;;;;4998710;28;20539;-69
2023/04/25 03:25:58;;;;;;;1.30;1.20;;;12.70;89.40;;;;;;5046592;28;20199;-68
2023/04/25 03:28:25;;;;;;;0.90;0.90;;;12.60;89.50;;;;;;4999438;28;20283;-68
2023/04/25 03:30:53;;;;;;;2.07;1.00;;;12.50;89.70;;;;;;5025710;28;20271;-68
2023/04/25 03:33:21;;;;;;;2.50;0.80;;;12.50;89.80;;;;;;5013094;28;20208;-69
2023/04/25 03:35:49;;;;;;;4.30;2.23;;;12.50;90.00;;;;;;5001905;28;20363;-68
2023/04/25 03:38:17;;;;;;;1.67;1.10;;;12.40;90.00;;;;;;5038749;28;20245;-69
2023/04/25 03:40:44;;;;;;;1.80;1.27;;;12.40;90.10;;;;;;4995020;28;20305;-68
2023/04/25 03:43:23;;;;;;;4.10;0.90;;;12.40;90.10;;;;;;5010706;28;20216;-68
2023/04/25 03:45:56;;;;;;;1.90;1.00;;;12.40;90.10;;;;;;5032078;28;20270;-68
2023/04/25 03:48:25;;;;;;;2.33;1.17;;;12.40;90.10;;;;;;5017353;28;20208;-71
2023/04/25 03:50:54;;;;;;;2.70;1.40;;;12.30;90.10;;;;;;5034766;28;20203;-68
2023/04/25 03:53:21;;;;;;;1.20;1.10;;;12.30;90.10;;;;;;5034138;28;20590;-68
2023/04/25 03:56:09;;;;;;;1.07;1.03;;;12.30;90.20;;;;;;5024520;28;20216;-68
2023/04/25 03:58:38;;;;;;;2.53;1.03;;;12.30;90.20;;;;;;5010877;28;20232;-68
2023/04/25 04:01:07;;;;;;;2.00;1.13;;;12.30;90.30;;;;;;5004647;28;20654;-68
2023/04/25 04:03:37;;;;;;;2.63;1.10;;;12.30;90.30;;;;;;5005294;28;20297;-68
2023/04/25 04:06:07;;;;;;;1.73;1.30;;;12.30;90.30;;;;;;5002444;28;20923;-68
2023/04/25 04:08:40;;;;;;;1.90;1.23;;;12.30;90.30;;;;;;5017459;28;20220;-69
2023/04/25 04:11:08;;;;;;;3.30;1.63;;;12.20;90.30;;;;;;5005501;28;20261;-68
2023/04/25 04:13:36;;;;;;;1.20;1.10;;;12.20;90.30;;;;;;5008383;28;20234;-68
2023/04/25 04:16:04;;;;;;;3.87;1.13;;;12.20;90.40;;;;;;5008278;28;20392;-68
2023/04/25 04:18:33;;;;;;;2.43;1.10;;;12.20;90.40;;;;;;5003834;28;20228;-68
2023/04/25 04:21:01;;;;;;;1.37;1.20;;;12.20;90.40;;;;;;5039263;28;20235;-69
2023/04/25 04:23:31;;;;;;;1.20;1.10;;;12.20;90.50;;;;;;5012357;28;20218;-69
2023/04/25 04:25:59;;;;;;;2.53;1.30;;;12.20;90.50;;;;;;5028695;28;20227;-68
2023/04/25 04:28:26;;;;;;;2.03;1.30;;;12.20;90.50;;;;;;4996214;28;20527;-68
2023/04/25 04:31:21;;;;;;;2.00;1.50;;;12.20;90.60;;;;;;4994750;28;20227;-68
2023/04/25 04:33:48;;;;;;;1.30;1.20;;;12.10;90.60;;;;;;5006885;28;20697;-68
2023/04/25 04:36:19;;;;;;;2.90;1.30;;;12.10;90.60;;;;;;4987494;28;20214;-68
2023/04/25 04:38:47;;;;;;;2.67;1.43;;;12.20;90.70;;;;;;5011530;28;20221;-68
2023/04/25 04:41:23;;;;;;;4.80;1.43;;;12.10;90.70;;;;;;5009780;28;20257;-68
2023/04/25 04:44:02;;;;;;;2.67;1.60;;;12.20;90.80;;;;;;5021288;28;20244;-69
2023/04/25 04:46:50;;;;;;;1.20;1.10;;;12.20;90.70;;;;;;5004454;28;20278;-68
2023/04/25 04:49:46;;;;;;;4.53;1.57;;;12.30;90.70;;;;;;5020305;28;20308;-68
2023/04/25 04:52:43;;;;;;;2.63;1.40;;;12.30;90.80;;;;;;5033437;28;20731;-69
2023/04/25 04:55:28;;;;;;;2.43;1.37;;;12.30;90.90;;;;;;5003329;28;20541;-68
2023/04/25 04:58:07;;;;;;;2.30;1.57;;;12.30;91.10;;;;;;5009367;28;20203;-69
2023/04/25 05:00:43;;;;;;;3.13;1.70;;;12.40;91.20;;;;;;5030749;28;20203;-71
2023/04/25 05:03:25;;;;;;;3.50;1.50;;;12.40;91.30;;;;;;5036286;28;20231;-68
2023/04/25 05:06:08;;;;;;;2.17;1.33;;;12.50;91.30;;;;;;5003701;28;20267;-68
2023/04/25 05:08:55;;;;;;;3.13;1.93;;;12.50;91.30;;;;;;5005598;28;20226;-68
2023/04/25 05:11:35;;;;;;;1.53;1.43;;;12.60;91.30;;;;;;5037162;28;20207;-68
2023/04/25 05:14:12;;;;;;;2.57;1.50;;;12.60;91.30;;;;;;5001934;28;20217;-68
2023/04/25 05:16:39;;;;;;;2.30;1.50;;;12.70;91.30;;;;;;5040771;28;20208;-68
2023/04/25 05:19:36;;;;;;;5.13;1.70;;;12.70;91.30;;;;;;4996470;28;20694;-69
2023/04/25 05:22:26;;;;;;;4.40;1.73;;;12.80;91.30;;;;;;5005104;28;20236;-68
2023/04/25 05:25:19;;;;;;;5.27;2.30;;;12.80;91.40;;;;;;5009514;28;20660;-68
2023/04/25 05:28:10;;;;;;;2.13;2.00;;;12.80;91.40;;;;;;4999027;28;20204;-68
2023/04/25 05:30:56;;;;;;;5.13;2.37;;;12.80;91.50;;;;;;5034766;28;20215;-68
2023/04/25 05:33:37;;;;;;;2.70;1.90;;;12.80;91.60;;;;;;5025344;28;20228;-68
2023/04/25 05:36:06;;;;;;;3.87;2.03;;;12.90;91.70;;;;;;5005099;28;20221;-69
2023/04/25 05:38:33;;;;;;;3.90;2.13;;;13.00;91.70;;;;;;5014130;28;20287;-68
2023/04/25 05:41:13;;;;;;;5.27;2.03;;;13.10;91.80;;;;;;4997058;28;20203;-68
2023/04/25 05:43:46;;;;;;;2.40;1.80;;;13.20;91.70;;;;;;5001313;28;20203;-69
2023/04/25 05:46:32;;;;;;;5.57;2.47;;;13.20;91.70;;;;;;5005027;28;21050;-68
2023/04/25 05:49:11;;;;;;;3.63;2.30;;;13.30;91.70;;;;;;5010324;28;20207;-68
2023/04/25 05:51:56;;;;;;;3.13;2.13;;;13.30;91.70;;;;;;4997081;28;20270;-69
2023/04/25 05:54:46;;;;;;;3.27;2.20;;;13.40;91.70;;;;;;5037631;28;20541;-68
2023/04/25 05:57:22;;;;;;;5.23;2.37;;;13.50;91.70;;;;;;5012799;28;20277;-68
2023/04/25 05:59:49;;;;;;;2.70;2.50;;;13.60;91.80;;;;;;4997320;28;20226;-69
2023/04/25 06:02:17;;;;;;;3.33;2.47;;;13.60;91.80;;;;;;5021209;28;20547;-68
2023/04/25 06:04:44;;;;;;;3.17;2.83;;;13.70;91.80;;;;;;5012100;28;20204;-68
2023/04/25 06:07:12;;;;;;;3.63;2.60;;;13.70;91.80;;;;;;5031772;28;20203;-68
2023/04/25 06:09:40;;;;;;;3.30;2.70;;;13.80;91.80;;;;;;4995575;28;20658;-68
2023/04/25 06:12:08;;;;;;;3.93;3.17;;;13.90;91.80;;;;;;5009411;28;20203;-68
2023/04/25 06:14:36;;;;;;;3.07;2.57;;;13.90;91.80;;;;;;5009468;28;20270;-68
2023/04/25 06:17:08;;;;;;;3.20;2.60;;;14.00;91.80;;;;;;5004368;28;20201;-68
2023/04/25 06:19:38;;;;;;;8.67;3.03;;;14.10;91.70;;;;;;5005215;28;20228;-68
2023/04/25 06:22:07;;;;;;;6.10;3.13;;;14.20;91.40;;;;;;5031431;28;20201;-68
2023/04/25 06:24:38;;;;;;;4.17;2.60;;;14.20;91.30;;;;;;5040155;28;20272;-68
2023/04/25 06:27:05;;;;;;;5.07;2.43;;;14.20;91.20;;;;;;5012573;28;20218;-68
2023/04/25 06:29:32;;;;;;;3.17;2.80;;;14.30;91.30;;;;;;5012199;28;20207;-68
2023/04/25 06:31:59;;;;;;;4.10;2.83;;;14.30;91.30;;;;;;5011757;28;20688;-68
2023/04/25 06:34:26;;;;;;;4.40;3.17;;;14.40;91.30;;;;;;5012301;28;20208;-68
2023/04/25 06:36:53;;;;;;;3.20;2.90;;;14.60;91.30;;;;;;5006078;28;20270;-68
2023/04/25 06:39:23;;;;;;;8.43;2.97;;;14.70;91.20;;;;;;5010044;28;20867;-68
2023/04/25 06:41:50;;;;;;;3.77;3.17;;;14.70;90.70;;;;;;5005858;28;20707;-68
2023/04/25 06:44:37;;;;;;;5.30;3.30;;;14.80;90.70;;;;;;5006190;28;20514;-68
2023/04/25 06:47:07;;;;;;;5.70;3.43;;;14.90;90.60;;;;;;4999736;28;20335;-68
2023/04/25 06:49:34;;;;;;;6.80;3.70;;;14.90;90.50;;;;;;4995503;28;20213;-68
2023/04/25 06:52:02;;;;;;;6.60;3.97;;;14.90;90.50;;;;;;5012079;28;20234;-69
2023/04/25 06:54:29;;;;;;;4.73;3.87;;;14.90;90.40;;;;;;5011144;28;20224;-68
2023/04/25 06:57:06;;;;;;;7.57;4.60;;;15.00;90.40;;;;;;5022191;28;20208;-69
2023/04/25 06:59:34;;;;;;;10.53;5.10;;;15.10;90.60;;;;;;5032546;28;20273;-68
2023/04/25 07:02:03;;;;;;;8.70;4.80;;;15.20;90.60;;;;;;5017143;28;20262;-69
2023/04/25 07:04:30;;;;;;;8.00;5.53;;;15.30;90.60;;;;;;5007225;28;20227;-68
2023/04/25 07:07:00;;;;;;;7.20;5.57;;;15.30;90.60;;;;;;5005632;28;20665;-69
2023/04/25 07:09:36;;;;;;;7.77;5.37;;;15.40;91.00;;;;;;5014893;28;20211;-68
2023/04/25 07:12:04;;;;;;;6.50;5.57;;;15.50;90.70;;;;;;5028176;28;20260;-69
2023/04/25 07:14:32;;;;;;;11.40;5.63;;;15.60;90.80;;;;;;4993413;28;20537;-68
2023/04/25 07:17:00;;;;;;;6.97;4.97;;;15.80;90.40;;;;;;5027247;28;20201;-68
2023/04/25 07:19:29;;;;;;;8.97;5.03;;;15.80;90.40;;;;;;5041159;28;20224;-69
2023/04/25 07:22:00;;;;;;;7.77;4.80;;;15.80;90.40;;;;;;5015292;28;20303;-69
2023/04/25 07:24:27;;;;;;;7.10;5.67;;;15.90;90.50;;;;;;5010814;28;20208;-68
2023/04/25 07:26:56;;;;;;;7.80;4.77;;;15.90;90.30;;;;;;5007480;28;20251;-68
2023/04/25 07:29:32;;;;;;;6.97;4.33;;;15.90;90.60;;;;;;5007814;28;20607;-69
2023/04/25 07:32:00;;;;;;;6.13;4.80;;;15.90;90.20;;;;;;5027728;28;20236;-69
2023/04/25 07:34:27;;;;;;;6.20;4.53;;;15.80;90.10;;;;;;5004239;28;20197;-69
2023/04/25 07:36:54;;;;;;;6.67;3.83;;;15.70;90.30;;;;;;5039972;28;20340;-68
2023/04/25 07:39:23;;;;;;;2.20;2.00;;;15.70;90.50;;;;;;5010261;28;20536;-68
2023/04/25 07:41:50;;;;;;;4.20;1.60;;;15.60;90.20;;;;;;5023756;28;20667;-69
2023/04/25 07:44:25;;;;;;;1.47;0.60;;;15.40;89.80;;;;;;5017977;28;20208;-69
2023/04/25 07:46:53;;;;;;;0.73;0.70;;;15.20;87.80;;;;;;5011838;28;20588;-69
2023/04/25 07:49:20;;;;;;;1.87;1.17;;;14.90;86.60;;;;;;5009488;28;20220;-69
2023/04/25 07:51:48;;;;;;;3.23;0.90;;;14.70;87.30;;;;;;5014083;28;20208;-68
2023/04/25 07:54:18;;;;;;;1.20;0.90;;;14.50;87.00;;;;;;5008132;28;20212;-69
2023/04/25 07:56:53;;;;;;;2.47;0.80;;;14.30;87.90;;;;;;5008834;28;20207;-68
2023/04/25 07:59:26;;;;;;;0.50;0.50;;;14.20;88.20;;;;;;5014551;28;20243;-68
2023/04/25 08:01:57;;;;;;;0.40;0.40;;;14.00;88.40;;;;;;5009860;28;20270;-68
2023/04/25 08:04:25;;;;;;;1.03;0.70;;;14.00;89.00;;;;;;5014854;28;20235;-68
2023/04/25 08:07:04;;;;;;;1.63;0.60;;;13.90;89.20;;;;;;5026747;28;20215;-68
2023/04/25 08:09:39;;;;;;;1.10;0.73;;;13.80;89.50;;;;;;5022041;28;20216;-68
2023/04/25 08:12:12;;;;;;;1.57;0.70;;;13.70;89.80;;;;;;5013444;28;20613;-68
2023/04/25 08:14:40;;;;;;;2.17;0.60;;;13.70;90.00;;;;;;5038322;28;20208;-68
2023/04/25 08:17:07;;;;;;;2.20;0.57;;;13.80;90.10;;;;;;5002953;28;20200;-66
2023/04/25 08:19:39;;;;;;;0.90;0.63;;;13.70;89.90;;;;;;5022353;28;20263;-67
2023/04/25 08:22:12;;;;;;;0.93;0.70;;;13.70;89.40;;;;;;5039186;28;20262;-68
2023/04/25 08:24:53;;;;;;;1.57;0.70;;;13.70;89.70;;;;;;5024167;28;20209;-68
2023/04/25 08:27:21;;;;;;;0.73;0.73;;;13.70;88.80;;;;;;5009656;28;20208;-67
2023/04/25 08:29:48;;;;;;;0.50;0.50;;;13.80;87.90;;;;;;5004822;28;20219;-68
2023/04/25 08:32:16;;;;;;;2.33;0.60;;;13.80;87.00;;;;;;5010448;28;20224;-67
2023/04/25 08:34:56;;;;;;;0.43;0.43;;;13.80;85.90;;;;;;5019848;28;20207;-68
2023/04/25 08:37:23;;;;;;;1.53;0.87;;;13.90;85.70;;;;;;5003872;28;20212;-68
2023/04/25 08:40:05;;;;;;;0.60;0.40;;;13.90;83.60;;;;;;5014850;28;20251;-68
2023/04/25 08:43:11;;;;;;;4.33;0.40;;;13.90;84.20;;;;;;5009675;28;20299;-68
2023/04/25 08:45:42;;;;;;;3.03;0.30;;;14.00;84.00;;;;;;5004564;28;20244;-67
2023/04/25 08:48:16;;;;;;;1.27;0.30;;;14.20;83.70;;;;;;5012663;28;20206;-67
2023/04/25 08:50:50;;;;;;;2.87;0.63;;;14.70;82.20;;;;;;5014559;28;20584;-67
2023/04/25 08:53:24;;;;;;;0.30;0.30;;;15.20;80.00;;;;;;5040668;28;20207;-68
2023/04/25 08:55:57;;;;;;;0.50;0.50;;;15.60;78.00;;;;;;5021924;28;20578;-68
2023/04/25 08:58:24;;;;;;;0.40;0.40;;;15.80;77.30;;;;;;5007238;28;20543;-72
2023/04/25 09:00:52;;;;;;;1.50;0.40;;;15.90;75.00;;;;;;5022039;28;20316;-68
2023/04/25 09:03:22;;;;;;;0.97;0.50;;;16.00;76.30;;;;;;5014552;28;20199;-67
2023/04/25 09:05:51;;;;;;;1.37;0.67;;;16.00;74.60;;;;;;5007123;28;20217;-67
2023/04/25 09:08:18;;;;;;;0.30;0.30;;;16.00;74.40;;;;;;5008595;28;20212;-68
2023/04/25 09:10:45;;;;;;;2.00;0.90;;;16.10;76.30;;;;;;4990618;28;20304;-68
2023/04/25 09:13:17;;;;;;;0.53;0.40;;;16.10;76.60;;;;;;5039783;28;20264;-70
2023/04/25 09:16:10;;;;;;;1.00;0.60;;;16.20;75.50;;;;;;5009940;28;20208;-71
2023/04/25 09:18:54;;;;;;;2.67;0.50;;;16.30;74.40;;;;;;5018671;28;20646;-67
2023/04/25 09:21:22;;;;;;;2.20;0.70;;;16.40;75.00;;;;;;5020179;28;20223;-69
2023/04/25 09:23:51;;;;;;;1.03;0.80;;;16.40;74.30;;;;;;5006492;28;20284;-69
2023/04/25 09:26:20;;;;;;;0.50;0.50;;;16.40;73.90;;;;;;5020776;28;20235;-68
2023/04/25 09:28:48;;;;;;;0.47;0.40;;;16.40;72.80;;;;;;5011133;28;20208;-68
2023/04/25 09:31:24;;;;;;;1.20;0.40;;;16.40;73.80;;;;;;5004142;28;20262;-68
2023/04/25 09:34:00;;;;;;;0.87;0.60;;;16.40;72.40;;;;;;5006319;28;20206;-68
2023/04/25 09:36:31;;;;;;;2.03;0.47;;;16.40;71.50;;;;;;5010630;28;20218;-68
2023/04/25 09:39:15;;;;;;;0.73;0.50;;;16.30;72.00;;;;;;5008673;28;20223;-67
2023/04/25 09:41:47;;;;;;;0.37;0.30;;;16.20;72.20;;;;;;5004511;28;20407;-68
2023/04/25 09:44:15;;;;;;;0.57;0.40;;;16.20;72.90;;;;;;5017927;28;20306;-68
2023/04/25 09:46:52;;;;;;;0.43;0.37;;;16.10;73.90;;;;;;5011005;28;20348;-69
2023/04/25 09:49:21;;;;;;;0.27;0.27;;;16.20;74.20;;;;;;5038563;28;20547;-69
2023/04/25 09:52:20;;;;;;;1.60;0.20;;;16.30;74.60;;;;;;4999316;28;20213;-68
2023/04/25 09:55:00;;;;;;;0.20;0.20;;;16.40;71.20;;;;;;5011370;28;20273;-68
2023/04/25 09:57:33;;;;;;;0.30;0.30;;;16.50;70.70;;;;;;5003500;28;20253;-68
2023/04/25 10:00:04;;;;;;;0.23;0.23;;;16.60;70.10;;;;;;5020557;28;20225;-68
2023/04/25 10:02:42;;;;;;;0.40;0.40;;;16.60;70.40;;;;;;5001639;28;20214;-68
2023/04/25 10:05:16;;;;;;;0.43;0.20;;;16.60;71.70;;;;;;5036285;28;20255;-68
2023/04/25 10:07:44;;;;;;;0.20;0.20;;;16.70;71.30;;;;;;5034584;28;20695;-68
2023/04/25 10:10:16;;;;;;;1.07;0.30;;;16.90;70.50;;;;;;5003316;28;20203;-68
2023/04/25 10:12:44;;;;;;;0.33;0.33;;;16.90;71.00;;;;;;5004087;28;20215;-69
2023/04/25 10:15:12;;;;;;;1.50;0.40;;;17.00;71.00;;;;;;5002992;28;21816;-72
2023/04/25 10:17:39;;;;;;;0.47;0.30;;;17.00;70.70;;;;;;5002496;28;20214;-68
2023/04/25 10:20:10;;;;;;;0.50;0.50;;;17.10;71.70;;;;;;5005225;28;20683;-68
2023/04/25 10:22:45;;;;;;;0.37;0.37;;;17.10;70.90;;;;;;5002022;28;20201;-69
2023/04/25 10:25:14;;;;;;;2.33;0.60;;;17.20;71.70;;;;;;5000764;28;20198;-69
2023/04/25 10:27:41;;;;;;;1.07;0.40;;;17.30;71.90;;;;;;5004287;28;20630;-68
2023/04/25 10:30:12;;;;;;;1.53;0.60;;;17.40;71.20;;;;;;5002735;28;20655;-69
2023/04/25 10:32:41;;;;;;;0.50;0.50;;;17.40;71.90;;;;;;5001320;28;20282;-68
2023/04/25 10:35:19;;;;;;;0.40;0.40;;;17.60;72.60;;;;;;5005379;28;20212;-68
2023/04/25 10:38:09;;;;;;;0.50;0.40;;;17.90;70.60;;;;;;5002178;28;20197;-68
2023/04/25 10:40:36;;;;;;;1.13;1.03;;;18.20;70.50;;;;;;5002474;28;20678;-71
2023/04/25 10:43:31;;;;;;;0.53;0.53;;;18.50;70.70;;;;;;5000666;28;20663;-69
2023/04/25 10:46:02;;;;;;;0.60;0.60;;;18.60;68.80;;;;;;5012323;28;20238;-69
2023/04/25 10:48:31;;;;;;;0.30;0.30;;;18.60;68.10;;;;;;5009633;28;20285;-69
2023/04/25 10:51:08;;;;;;;0.30;0.30;;;18.60;66.60;;;;;;4998017;28;20204;-69
2023/04/25 10:53:35;;;;;;;0.40;0.40;;;18.50;67.10;;;;;;5005806;28;20212;-68
2023/04/25 10:56:21;;;;;;;0.63;0.50;;;18.40;67.40;;;;;;5006907;28;20206;-69
2023/04/25 10:58:49;;;;;;;0.30;0.30;;;18.30;67.60;;;;;;5006714;28;20206;-69
2023/04/25 11:01:25;;;;;;;1.37;0.40;;;18.20;66.80;;;;;;5007586;28;20263;-69
2023/04/25 11:03:58;;;;;;;1.50;0.60;;;18.10;67.80;;;;;;5006164;28;20206;-69
2023/04/25 11:07:07;;;;;;;0.30;0.30;;;18.00;68.10;;;;;;5005907;28;20539;-69
2023/04/25 11:09:35;;;;;;;0.60;0.40;;;18.00;68.80;;;;;;5001214;28;20217;-68
2023/04/25 11:12:03;;;;;;;0.33;0.33;;;17.90;69.10;;;;;;5007417;28;20211;-69
2023/04/25 11:14:30;;;;;;;0.80;0.50;;;17.80;68.80;;;;;;5011203;28;20220;-69
2023/04/25 11:16:58;;;;;;;0.43;0.43;;;17.80;69.70;;;;;;4998383;28;20325;-69
2023/04/25 11:19:27;;;;;;;0.53;0.53;;;17.80;70.60;;;;;;5038393;28;20646;-69
2023/04/25 11:21:59;;;;;;;0.50;0.50;;;17.80;71.00;;;;;;5004010;28;20224;-69
2023/04/25 11:24:31;;;;;;;1.13;0.37;;;17.80;70.90;;;;;;5004717;28;20206;-69
2023/04/25 11:27:02;;;;;;;0.50;0.50;;;17.80;70.50;;;;;;5006104;28;20206;-69
2023/04/25 11:29:31;;;;;;;0.47;0.40;;;17.80;71.00;;;;;;4999795;28;20201;-69
2023/04/25 11:31:58;;;;;;;0.40;0.40;;;17.70;71.50;;;;;;5000894;28;20292;-69
2023/04/25 11:34:27;;;;;;;1.13;0.50;;;17.70;72.50;;;;;;5005025;28;20210;-69
2023/04/25 11:36:54;;;;;;;1.87;0.60;;;17.70;72.70;;;;;;5003271;28;20284;-69
2023/04/25 11:39:21;;;;;;;0.70;0.70;;;17.70;72.70;;;;;;5006914;28;20201;-69
2023/04/25 11:41:48;;;;;;;0.60;0.60;;;17.70;73.00;;;;;;4999359;28;20222;-69
2023/04/25 11:44:19;;;;;;;0.60;0.33;;;17.80;73.60;;;;;;5008394;28;20252;-69
2023/04/25 11:46:47;;;;;;;0.73;0.67;;;17.80;72.90;;;;;;5005784;28;20238;-70
2023/04/25 11:49:14;;;;;;;1.27;0.53;;;17.70;71.80;;;;;;5006477;28;20194;-69
2023/04/25 11:51:46;;;;;;;0.70;0.60;;;17.70;72.20;;;;;;5005984;28;20215;-69
2023/04/25 11:54:13;;;;;;;1.63;0.50;;;17.70;72.40;;;;;;5007625;28;20200;-69
2023/04/25 11:56:45;;;;;;;1.23;0.50;;;17.60;72.30;;;;;;5004141;28;20215;-69
2023/04/25 11:59:13;;;;;;;0.50;0.50;;;17.60;72.60;;;;;;5006777;28;20202;-69
2023/04/25 12:01:49;;;;;;;1.90;0.30;;;17.50;71.70;;;;;;5002471;28;20632;-69
2023/04/25 12:04:21;;;;;;;0.57;0.43;;;17.50;71.40;;;;;;5006072;28;20638;-69
2023/04/25 12:06:54;;;;;;;0.73;0.73;;;17.40;72.30;;;;;;5007718;28;20631;-69
2023/04/25 12:09:28;;;;;;;1.03;0.70;;;17.50;72.50;;;;;;5005706;28;20202;-69
2023/04/25 12:11:58;;;;;;;2.57;0.60;;;17.50;70.80;;;;;;5010031;28;20267;-69
2023/04/25 12:14:31;;;;;;;0.70;0.50;;;17.50;72.70;;;;;;5010207;28;20671;-69
2023/04/25 12:16:59;;;;;;;0.87;0.60;;;17.60;71.90;;;;;;5004199;28;20293;-69
2023/04/25 12:19:33;;;;;;;1.33;0.53;;;17.70;71.00;;;;;;5011260;28;20254;-69
2023/04/25 12:22:02;;;;;;;0.70;0.70;;;17.70;72.20;;;;;;5006226;28;20228;-68
2023/04/25 12:24:34;;;;;;;1.70;0.50;;;17.90;72.80;;;;;;5005377;28;20287;-69
2023/04/25 12:27:07;;;;;;;0.77;0.70;;;18.00;71.80;;;;;;5002497;28;20206;-70
2023/04/25 12:29:35;;;;;;;1.23;0.60;;;18.20;72.80;;;;;;5004173;28;20514;-69
2023/04/25 12:32:15;;;;;;;0.83;0.50;;;18.50;72.90;;;;;;5008032;28;20691;-69
2023/04/25 12:34:43;;;;;;;0.60;0.60;;;18.80;70.80;;;;;;5009532;28;20214;-70
2023/04/25 12:37:11;;;;;;;1.33;0.70;;;19.00;69.50;;;;;;5009143;28;20195;-69
2023/04/25 12:39:38;;;;;;;0.60;0.60;;;19.10;69.70;;;;;;5004969;28;20209;-69
2023/04/25 12:42:07;;;;;;;1.93;0.70;;;19.10;70.10;;;;;;5009657;28;20210;-69
2023/04/25 12:44:36;;;;;;;0.43;0.43;;;19.00;68.80;;;;;;5005410;28;20194;-68
2023/04/25 12:47:03;;;;;;;1.03;0.50;;;18.80;68.50;;;;;;5008912;28;20242;-69
2023/04/25 12:49:31;;;;;;;0.80;0.63;;;18.70;67.70;;;;;;5005374;28;20257;-69
2023/04/25 12:51:58;;;;;;;2.17;0.40;;;18.60;68.10;;;;;;5002373;28;20211;-69
2023/04/25 12:54:26;;;;;;;0.70;0.53;;;18.60;68.50;;;;;;5008208;28;20690;-69
2023/04/25 12:56:53;;;;;;;1.40;0.50;;;18.70;68.90;;;;;;5005467;28;20230;-68
2023/04/25 12:59:21;;;;;;;1.13;0.70;;;18.80;68.60;;;;;;5010742;28;20206;-68
2023/04/25 13:01:48;;;;;;;1.67;0.50;;;18.90;69.30;;;;;;4999524;28;20551;-69
2023/04/25 13:04:15;;;;;;;0.90;0.57;;;18.90;69.40;;;;;;5007387;28;20211;-69
2023/04/25 13:06:43;;;;;;;4.10;0.60;;;19.10;69.60;;;;;;5003257;28;20573;-68
2023/04/25 13:09:12;;;;;;;0.73;0.50;;;19.30;70.00;;;;;;5009050;28;20550;-69